sensor_id;sensor_type;location;lat;lon;timestamp;P1;P2;P0
24012;PMS7003;12220;50.194;18.948;2022-08-06T00:01:17;18;18;15
24012;PMS7003;12220;50.194;18.948;2022-08-06T00:03:18;18;17;13
24012;PMS7003;12220;50.194;18.948;2022-08-06T00:05:19;18;18;12
24012;PMS7003;12220;50.194;18.948;2022-08-06T00:07:21;13;13;11
24012;PMS7003;12220;50.194;18.948;2022-08-06T00:09:32;20;19;13
24012;PMS7003;12220;50.194;18.948;2022-08-06T00:11:33;19;17;12
24012;PMS7003;12220;50.194;18.948;2022-08-06T00:13:35;22;20;16
24012;PMS7003;12220;50.194;18.948;2022-08-06T00:15:36;17;16;14
24012;PMS7003;12220;50.194;18.948;2022-08-06T00:17:47;19;18;16
24012;PMS7003;12220;50.194;18.948;2022-08-06T00:19:48;13;12;9
24012;PMS7003;12220;50.194;18.948;2022-08-06T00:21:50;21;19;14
24012;PMS7003;12220;50.194;18.948;2022-08-06T00:23:52;23;21;16
24012;PMS7003;12220;50.194;18.948;2022-08-06T00:26:01;16;16;13
24012;PMS7003;12220;50.194;18.948;2022-08-06T00:28:03;18;16;13
24012;PMS7003;12220;50.194;18.948;2022-08-06T00:30:05;19;18;15
24012;PMS7003;12220;50.194;18.948;2022-08-06T00:32:09;14;14;12
24012;PMS7003;12220;50.194;18.948;2022-08-06T00:34:16;13;13;11
24012;PMS7003;12220;50.194;18.948;2022-08-06T00:36:20;16;14;13
24012;PMS7003;12220;50.194;18.948;2022-08-06T00:38:22;16;16;12
24012;PMS7003;12220;50.194;18.948;2022-08-06T00:40:23;15;14;12
24012;PMS7003;12220;50.194;18.948;2022-08-06T00:42:31;15;15;14
24012;PMS7003;12220;50.194;18.948;2022-08-06T00:44:32;17;17;13
24012;PMS7003;12220;50.194;18.948;2022-08-06T00:46:34;15;15;12
24012;PMS7003;12220;50.194;18.948;2022-08-06T00:48:35;10;10;8
24012;PMS7003;12220;50.194;18.948;2022-08-06T00:50:46;20;16;13
24012;PMS7003;12220;50.194;18.948;2022-08-06T00:52:48;12;12;11
24012;PMS7003;12220;50.194;18.948;2022-08-06T00:54:49;13;13;12
24012;PMS7003;12220;50.194;18.948;2022-08-06T00:56:50;15;15;12
24012;PMS7003;12220;50.194;18.948;2022-08-06T00:59:01;15;15;13
24012;PMS7003;12220;50.194;18.948;2022-08-06T01:01:02;15;14;13
24012;PMS7003;12220;50.194;18.948;2022-08-06T01:03:03;21;21;17
24012;PMS7003;12220;50.194;18.948;2022-08-06T01:05:05;22;21;17
24012;PMS7003;12220;50.194;18.948;2022-08-06T01:07:16;21;21;19
24012;PMS7003;12220;50.194;18.948;2022-08-06T01:09:17;21;19;16
24012;PMS7003;12220;50.194;18.948;2022-08-06T01:11:18;25;24;19
24012;PMS7003;12220;50.194;18.948;2022-08-06T01:13:19;21;21;17
24012;PMS7003;12220;50.194;18.948;2022-08-06T01:15:31;17;17;15
24012;PMS7003;12220;50.194;18.948;2022-08-06T01:19:51;26;25;20
24012;PMS7003;12220;50.194;18.948;2022-08-06T01:30:57;29;29;22
24012;PMS7003;12220;50.194;18.948;2022-08-06T01:33:06;33;28;21
24012;PMS7003;12220;50.194;18.948;2022-08-06T01:35:12;30;27;20
24012;PMS7003;12220;50.194;18.948;2022-08-06T01:37:21;31;30;20
24012;PMS7003;12220;50.194;18.948;2022-08-06T01:39:30;24;23;20
24012;PMS7003;12220;50.194;18.948;2022-08-06T01:41:40;32;31;22
24012;PMS7003;12220;50.194;18.948;2022-08-06T01:43:44;30;29;21
24012;PMS7003;12220;50.194;18.948;2022-08-06T01:45:46;38;33;24
24012;PMS7003;12220;50.194;18.948;2022-08-06T01:47:50;26;26;21
24012;PMS7003;12220;50.194;18.948;2022-08-06T01:49:56;31;29;22
24012;PMS7003;12220;50.194;18.948;2022-08-06T01:52:00;33;31;23
24012;PMS7003;12220;50.194;18.948;2022-08-06T01:54:03;34;31;22
24012;PMS7003;12220;50.194;18.948;2022-08-06T01:56:09;37;33;22
24012;PMS7003;12220;50.194;18.948;2022-08-06T01:58:12;30;28;21
24012;PMS7003;12220;50.194;18.948;2022-08-06T02:00:18;28;28;21
24012;PMS7003;12220;50.194;18.948;2022-08-06T02:02:21;27;27;21
24012;PMS7003;12220;50.194;18.948;2022-08-06T02:04:26;31;30;21
24012;PMS7003;12220;50.194;18.948;2022-08-06T02:06:32;30;28;20
24012;PMS7003;12220;50.194;18.948;2022-08-06T02:08:35;31;30;22
24012;PMS7003;12220;50.194;18.948;2022-08-06T02:10:39;32;27;20
24012;PMS7003;12220;50.194;18.948;2022-08-06T02:12:42;31;28;19
24012;PMS7003;12220;50.194;18.948;2022-08-06T02:14:57;28;27;19
24012;PMS7003;12220;50.194;18.948;2022-08-06T02:17:05;25;25;20
24012;PMS7003;12220;50.194;18.948;2022-08-06T02:19:09;26;26;19
24012;PMS7003;12220;50.194;18.948;2022-08-06T02:21:15;24;24;20
24012;PMS7003;12220;50.194;18.948;2022-08-06T02:23:21;26;26;20
24012;PMS7003;12220;50.194;18.948;2022-08-06T02:25:24;23;23;18
24012;PMS7003;12220;50.194;18.948;2022-08-06T02:27:31;24;21;17
24012;PMS7003;12220;50.194;18.948;2022-08-06T02:29:34;24;23;18
24012;PMS7003;12220;50.194;18.948;2022-08-06T02:31:37;24;22;18
24012;PMS7003;12220;50.194;18.948;2022-08-06T02:33:38;22;21;17
24012;PMS7003;12220;50.194;18.948;2022-08-06T02:35:44;24;22;18
24012;PMS7003;12220;50.194;18.948;2022-08-06T02:37:51;20;20;16
24012;PMS7003;12220;50.194;18.948;2022-08-06T02:40:05;20;20;17
24012;PMS7003;12220;50.194;18.948;2022-08-06T02:46:38;19;19;16
24012;PMS7003;12220;50.194;18.948;2022-08-06T02:50:59;19;19;15
24012;PMS7003;12220;50.194;18.948;2022-08-06T02:53:08;18;17;14
24012;PMS7003;12220;50.194;18.948;2022-08-06T02:55:13;20;20;18
24012;PMS7003;12220;50.194;18.948;2022-08-06T02:57:28;20;20;15
24012;PMS7003;12220;50.194;18.948;2022-08-06T02:59:33;18;18;16
24012;PMS7003;12220;50.194;18.948;2022-08-06T03:01:41;25;23;16
24012;PMS7003;12220;50.194;18.948;2022-08-06T03:03:49;16;16;13
24012;PMS7003;12220;50.194;18.948;2022-08-06T03:05:54;18;17;16
24012;PMS7003;12220;50.194;18.948;2022-08-06T03:08:06;16;15;13
24012;PMS7003;12220;50.194;18.948;2022-08-06T03:10:11;15;15;13
24012;PMS7003;12220;50.194;18.948;2022-08-06T03:12:14;16;15;12
24012;PMS7003;12220;50.194;18.948;2022-08-06T03:14:18;21;19;16
24012;PMS7003;12220;50.194;18.948;2022-08-06T03:16:21;13;13;10
24012;PMS7003;12220;50.194;18.948;2022-08-06T03:18:24;20;20;15
24012;PMS7003;12220;50.194;18.948;2022-08-06T03:20:28;16;16;13
24012;PMS7003;12220;50.194;18.948;2022-08-06T03:22:32;18;14;11
24012;PMS7003;12220;50.194;18.948;2022-08-06T03:24:36;13;13;12
24012;PMS7003;12220;50.194;18.948;2022-08-06T03:26:39;21;16;13
24012;PMS7003;12220;50.194;18.948;2022-08-06T03:28:42;13;13;10
24012;PMS7003;12220;50.194;18.948;2022-08-06T03:30:44;15;15;12
24012;PMS7003;12220;50.194;18.948;2022-08-06T03:32:50;13;13;11
24012;PMS7003;12220;50.194;18.948;2022-08-06T03:34:53;12;12;10
24012;PMS7003;12220;50.194;18.948;2022-08-06T03:36:56;15;15;13
24012;PMS7003;12220;50.194;18.948;2022-08-06T03:39:00;13;13;11
24012;PMS7003;12220;50.194;18.948;2022-08-06T03:41:08;15;14;12
24012;PMS7003;12220;50.194;18.948;2022-08-06T03:43:11;12;12;10
24012;PMS7003;12220;50.194;18.948;2022-08-06T03:45:12;14;14;12
24012;PMS7003;12220;50.194;18.948;2022-08-06T03:49:29;10;10;10
24012;PMS7003;12220;50.194;18.948;2022-08-06T03:51:41;15;13;11
24012;PMS7003;12220;50.194;18.948;2022-08-06T03:53:44;14;14;12
24012;PMS7003;12220;50.194;18.948;2022-08-06T03:55:48;15;14;13
24012;PMS7003;12220;50.194;18.948;2022-08-06T03:57:52;17;15;14
24012;PMS7003;12220;50.194;18.948;2022-08-06T03:59:56;14;14;11
24012;PMS7003;12220;50.194;18.948;2022-08-06T04:02:01;12;12;8
24012;PMS7003;12220;50.194;18.948;2022-08-06T04:04:03;13;13;11
24012;PMS7003;12220;50.194;18.948;2022-08-06T04:06:07;12;12;10
24012;PMS7003;12220;50.194;18.948;2022-08-06T04:08:13;17;13;11
24012;PMS7003;12220;50.194;18.948;2022-08-06T04:10:15;14;13;13
24012;PMS7003;12220;50.194;18.948;2022-08-06T04:12:18;14;13;11
24012;PMS7003;12220;50.194;18.948;2022-08-06T04:14:21;12;10;9
24012;PMS7003;12220;50.194;18.948;2022-08-06T04:16:26;16;16;13
24012;PMS7003;12220;50.194;18.948;2022-08-06T04:18:30;14;14;12
24012;PMS7003;12220;50.194;18.948;2022-08-06T04:20:35;13;13;10
24012;PMS7003;12220;50.194;18.948;2022-08-06T04:22:39;14;14;12
24012;PMS7003;12220;50.194;18.948;2022-08-06T04:24:40;19;17;15
24012;PMS7003;12220;50.194;18.948;2022-08-06T04:26:43;16;16;14
24012;PMS7003;12220;50.194;18.948;2022-08-06T04:28:47;15;11;10
24012;PMS7003;12220;50.194;18.948;2022-08-06T04:30:50;13;13;12
24012;PMS7003;12220;50.194;18.948;2022-08-06T04:32:55;11;11;9
24012;PMS7003;12220;50.194;18.948;2022-08-06T04:35:02;13;13;11
24012;PMS7003;12220;50.194;18.948;2022-08-06T04:37:05;13;13;11
24012;PMS7003;12220;50.194;18.948;2022-08-06T04:39:11;15;15;12
24012;PMS7003;12220;50.194;18.948;2022-08-06T04:41:13;13;13;11
24012;PMS7003;12220;50.194;18.948;2022-08-06T04:43:20;12;12;9
24012;PMS7003;12220;50.194;18.948;2022-08-06T04:45:21;13;13;11
24012;PMS7003;12220;50.194;18.948;2022-08-06T04:47:24;11;10;10
24012;PMS7003;12220;50.194;18.948;2022-08-06T04:49:26;11;11;9
24012;PMS7003;12220;50.194;18.948;2022-08-06T04:51:28;12;11;9
24012;PMS7003;12220;50.194;18.948;2022-08-06T04:53:35;12;12;10
24012;PMS7003;12220;50.194;18.948;2022-08-06T04:55:39;12;12;10
24012;PMS7003;12220;50.194;18.948;2022-08-06T04:57:41;8;8;7
24012;PMS7003;12220;50.194;18.948;2022-08-06T04:59:43;10;10;9
24012;PMS7003;12220;50.194;18.948;2022-08-06T05:01:44;14;14;11
24012;PMS7003;12220;50.194;18.948;2022-08-06T05:03:47;13;13;11
24012;PMS7003;12220;50.194;18.948;2022-08-06T05:05:59;12;12;11
24012;PMS7003;12220;50.194;18.948;2022-08-06T05:08:06;13;13;10
24012;PMS7003;12220;50.194;18.948;2022-08-06T05:10:09;15;12;11
24012;PMS7003;12220;50.194;18.948;2022-08-06T05:14:27;16;15;13
24012;PMS7003;12220;50.194;18.948;2022-08-06T05:16:37;13;13;11
24012;PMS7003;12220;50.194;18.948;2022-08-06T05:18:43;13;13;10
24012;PMS7003;12220;50.194;18.948;2022-08-06T05:20:50;17;17;14
24012;PMS7003;12220;50.194;18.948;2022-08-06T05:22:55;18;18;15
24012;PMS7003;12220;50.194;18.948;2022-08-06T05:25:00;18;18;15
24012;PMS7003;12220;50.194;18.948;2022-08-06T05:27:01;19;17;13
24012;PMS7003;12220;50.194;18.948;2022-08-06T05:29:03;13;12;11
24012;PMS7003;12220;50.194;18.948;2022-08-06T05:31:05;15;14;12
24012;PMS7003;12220;50.194;18.948;2022-08-06T05:33:08;15;15;12
24012;PMS7003;12220;50.194;18.948;2022-08-06T05:35:09;17;17;14
24012;PMS7003;12220;50.194;18.948;2022-08-06T05:37:10;14;14;11
24012;PMS7003;12220;50.194;18.948;2022-08-06T05:39:12;15;13;12
24012;PMS7003;12220;50.194;18.948;2022-08-06T05:41:23;11;10;10
24012;PMS7003;12220;50.194;18.948;2022-08-06T05:43:24;12;12;11
24012;PMS7003;12220;50.194;18.948;2022-08-06T05:45:28;10;10;8
24012;PMS7003;12220;50.194;18.948;2022-08-06T05:47:33;11;11;10
24012;PMS7003;12220;50.194;18.948;2022-08-06T05:49:44;12;12;10
24012;PMS7003;12220;50.194;18.948;2022-08-06T05:52:02;10;10;9
24012;PMS7003;12220;50.194;18.948;2022-08-06T05:56:34;11;11;10
24012;PMS7003;12220;50.194;18.948;2022-08-06T05:58:44;12;12;10
24012;PMS7003;12220;50.194;18.948;2022-08-06T06:00:52;12;12;11
24012;PMS7003;12220;50.194;18.948;2022-08-06T06:02:55;11;11;10
24012;PMS7003;12220;50.194;18.948;2022-08-06T06:05:05;16;14;12
24012;PMS7003;12220;50.194;18.948;2022-08-06T06:07:08;14;14;12
24012;PMS7003;12220;50.194;18.948;2022-08-06T06:09:10;15;13;11
24012;PMS7003;12220;50.194;18.948;2022-08-06T06:11:14;11;11;8
24012;PMS7003;12220;50.194;18.948;2022-08-06T06:13:21;10;10;9
24012;PMS7003;12220;50.194;18.948;2022-08-06T06:15:26;12;12;10
24012;PMS7003;12220;50.194;18.948;2022-08-06T06:19:43;16;16;12
24012;PMS7003;12220;50.194;18.948;2022-08-06T06:24:12;10;10;9
24012;PMS7003;12220;50.194;18.948;2022-08-06T06:28:41;8;8;7
24012;PMS7003;12220;50.194;18.948;2022-08-06T06:30:53;11;11;9
24012;PMS7003;12220;50.194;18.948;2022-08-06T06:33:13;11;11;9
24012;PMS7003;12220;50.194;18.948;2022-08-06T06:35:19;17;13;11
24012;PMS7003;12220;50.194;18.948;2022-08-06T06:37:30;11;11;10
24012;PMS7003;12220;50.194;18.948;2022-08-06T06:39:39;9;9;8
24012;PMS7003;12220;50.194;18.948;2022-08-06T06:41:52;13;13;12
24012;PMS7003;12220;50.194;18.948;2022-08-06T06:48:23;16;16;14
24012;PMS7003;12220;50.194;18.948;2022-08-06T06:50:35;13;11;11
24012;PMS7003;12220;50.194;18.948;2022-08-06T06:52:43;12;11;10
24012;PMS7003;12220;50.194;18.948;2022-08-06T06:55:21;13;13;12
24012;PMS7003;12220;50.194;18.948;2022-08-06T06:57:09;15;14;13
24012;PMS7003;12220;50.194;18.948;2022-08-06T06:59:18;16;14;11
24012;PMS7003;12220;50.194;18.948;2022-08-06T07:01:28;9;9;7
24012;PMS7003;12220;50.194;18.948;2022-08-06T07:03:33;12;12;9
24012;PMS7003;12220;50.194;18.948;2022-08-06T07:05:41;10;10;8
24012;PMS7003;12220;50.194;18.948;2022-08-06T07:07:45;9;9;9
24012;PMS7003;12220;50.194;18.948;2022-08-06T07:09:49;8;8;6
24012;PMS7003;12220;50.194;18.948;2022-08-06T07:11:54;10;10;9
24012;PMS7003;12220;50.194;18.948;2022-08-06T07:13:57;10;10;9
24012;PMS7003;12220;50.194;18.948;2022-08-06T07:16:04;10;10;9
24012;PMS7003;12220;50.194;18.948;2022-08-06T07:18:10;10;8;8
24012;PMS7003;12220;50.194;18.948;2022-08-06T07:20:13;10;10;9
24012;PMS7003;12220;50.194;18.948;2022-08-06T07:22:17;9;9;8
24012;PMS7003;12220;50.194;18.948;2022-08-06T07:24:20;8;8;8
24012;PMS7003;12220;50.194;18.948;2022-08-06T07:26:24;10;10;8
24012;PMS7003;12220;50.194;18.948;2022-08-06T07:28:28;4;4;4
24012;PMS7003;12220;50.194;18.948;2022-08-06T07:30:31;7;7;6
24012;PMS7003;12220;50.194;18.948;2022-08-06T07:32:34;8;8;8
24012;PMS7003;12220;50.194;18.948;2022-08-06T07:34:37;8;8;7
24012;PMS7003;12220;50.194;18.948;2022-08-06T07:38:50;3;3;3
24012;PMS7003;12220;50.194;18.948;2022-08-06T07:41:06;2;2;2
24012;PMS7003;12220;50.194;18.948;2022-08-06T07:43:13;3;3;2
24012;PMS7003;12220;50.194;18.948;2022-08-06T07:45:18;1;1;1
24012;PMS7003;12220;50.194;18.948;2022-08-06T07:47:27;2;2;2
24012;PMS7003;12220;50.194;18.948;2022-08-06T07:49:36;1;1;1
24012;PMS7003;12220;50.194;18.948;2022-08-06T07:51:44;0;0;0
24012;PMS7003;12220;50.194;18.948;2022-08-06T07:53:48;1;0;0
24012;PMS7003;12220;50.194;18.948;2022-08-06T07:55:52;0;0;0
24012;PMS7003;12220;50.194;18.948;2022-08-06T07:57:53;0;0;0
24012;PMS7003;12220;50.194;18.948;2022-08-06T07:59:59;0;0;0
24012;PMS7003;12220;50.194;18.948;2022-08-06T08:02:01;0;0;0
24012;PMS7003;12220;50.194;18.948;2022-08-06T08:04:05;0;0;0
24012;PMS7003;12220;50.194;18.948;2022-08-06T08:06:19;0;0;0
24012;PMS7003;12220;50.194;18.948;2022-08-06T08:08:24;0;0;0
24012;PMS7003;12220;50.194;18.948;2022-08-06T08:10:36;0;0;0
24012;PMS7003;12220;50.194;18.948;2022-08-06T08:12:37;0;0;0
24012;PMS7003;12220;50.194;18.948;2022-08-06T08:14:43;0;0;0
24012;PMS7003;12220;50.194;18.948;2022-08-06T08:16:48;0;0;0
24012;PMS7003;12220;50.194;18.948;2022-08-06T08:18:50;0;0;0
24012;PMS7003;12220;50.194;18.948;2022-08-06T08:20:51;0;0;0
24012;PMS7003;12220;50.194;18.948;2022-08-06T08:22:53;0;0;0
24012;PMS7003;12220;50.194;18.948;2022-08-06T08:24:54;0;0;0
24012;PMS7003;12220;50.194;18.948;2022-08-06T08:27:05;0;0;0
24012;PMS7003;12220;50.194;18.948;2022-08-06T08:29:11;0;0;0
24012;PMS7003;12220;50.194;18.948;2022-08-06T08:31:13;0;0;0
24012;PMS7003;12220;50.194;18.948;2022-08-06T08:33:17;0;0;0
24012;PMS7003;12220;50.194;18.948;2022-08-06T08:35:20;0;0;0
24012;PMS7003;12220;50.194;18.948;2022-08-06T08:37:23;1;1;0
24012;PMS7003;12220;50.194;18.948;2022-08-06T08:39:24;0;0;0
24012;PMS7003;12220;50.194;18.948;2022-08-06T08:41:30;0;0;0
24012;PMS7003;12220;50.194;18.948;2022-08-06T08:43:37;0;0;0
24012;PMS7003;12220;50.194;18.948;2022-08-06T08:45:56;0;0;0
24012;PMS7003;12220;50.194;18.948;2022-08-06T08:48:00;2;1;1
24012;PMS7003;12220;50.194;18.948;2022-08-06T08:50:02;0;0;0
24012;PMS7003;12220;50.194;18.948;2022-08-06T08:52:07;0;0;0
24012;PMS7003;12220;50.194;18.948;2022-08-06T08:54:13;0;0;0
24012;PMS7003;12220;50.194;18.948;2022-08-06T08:56:19;1;1;1
24012;PMS7003;12220;50.194;18.948;2022-08-06T08:58:21;1;1;1
24012;PMS7003;12220;50.194;18.948;2022-08-06T09:00:23;2;2;2
24012;PMS7003;12220;50.194;18.948;2022-08-06T09:02:25;1;1;1
24012;PMS7003;12220;50.194;18.948;2022-08-06T09:04:27;1;1;1
24012;PMS7003;12220;50.194;18.948;2022-08-06T09:06:29;0;0;0
24012;PMS7003;12220;50.194;18.948;2022-08-06T09:08:33;2;2;1
24012;PMS7003;12220;50.194;18.948;2022-08-06T09:10:40;1;1;1
24012;PMS7003;12220;50.194;18.948;2022-08-06T09:12:42;1;1;1
24012;PMS7003;12220;50.194;18.948;2022-08-06T09:14:43;1;1;1
24012;PMS7003;12220;50.194;18.948;2022-08-06T09:16:47;2;2;2
24012;PMS7003;12220;50.194;18.948;2022-08-06T09:18:55;1;1;1
24012;PMS7003;12220;50.194;18.948;2022-08-06T09:20:58;0;0;0
24012;PMS7003;12220;50.194;18.948;2022-08-06T09:23:02;0;0;0
24012;PMS7003;12220;50.194;18.948;2022-08-06T09:25:04;1;1;0
24012;PMS7003;12220;50.194;18.948;2022-08-06T09:27:14;2;1;1
24012;PMS7003;12220;50.194;18.948;2022-08-06T09:29:20;1;1;1
24012;PMS7003;12220;50.194;18.948;2022-08-06T09:31:22;2;1;1
24012;PMS7003;12220;50.194;18.948;2022-08-06T09:33:24;1;1;1
24012;PMS7003;12220;50.194;18.948;2022-08-06T09:35:28;2;2;2
24012;PMS7003;12220;50.194;18.948;2022-08-06T09:37:30;2;1;1
24012;PMS7003;12220;50.194;18.948;2022-08-06T09:39:35;2;2;2
24012;PMS7003;12220;50.194;18.948;2022-08-06T09:43:50;2;2;2
24012;PMS7003;12220;50.194;18.948;2022-08-06T09:46:04;2;2;2
24012;PMS7003;12220;50.194;18.948;2022-08-06T09:48:07;3;3;2
24012;PMS7003;12220;50.194;18.948;2022-08-06T09:50:10;2;2;1
24012;PMS7003;12220;50.194;18.948;2022-08-06T09:52:12;2;2;2
24012;PMS7003;12220;50.194;18.948;2022-08-06T09:54:18;2;2;1
24012;PMS7003;12220;50.194;18.948;2022-08-06T09:56:21;2;2;1
24012;PMS7003;12220;50.194;18.948;2022-08-06T10:00:35;0;0;0
24012;PMS7003;12220;50.194;18.948;2022-08-06T10:02:38;1;1;1
24012;PMS7003;12220;50.194;18.948;2022-08-06T10:04:42;1;1;1
24012;PMS7003;12220;50.194;18.948;2022-08-06T10:09:04;2;2;2
24012;PMS7003;12220;50.194;18.948;2022-08-06T10:11:03;1;1;1
24012;PMS7003;12220;50.194;18.948;2022-08-06T10:13:10;1;1;1
24012;PMS7003;12220;50.194;18.948;2022-08-06T10:15:27;1;1;1
24012;PMS7003;12220;50.194;18.948;2022-08-06T10:17:30;1;1;1
24012;PMS7003;12220;50.194;18.948;2022-08-06T10:19:31;1;1;1
24012;PMS7003;12220;50.194;18.948;2022-08-06T10:21:34;0;0;0
24012;PMS7003;12220;50.194;18.948;2022-08-06T10:23:36;1;1;1
24012;PMS7003;12220;50.194;18.948;2022-08-06T10:25:40;0;0;0
24012;PMS7003;12220;50.194;18.948;2022-08-06T10:27:42;1;1;1
24012;PMS7003;12220;50.194;18.948;2022-08-06T10:29:50;0;0;0
24012;PMS7003;12220;50.194;18.948;2022-08-06T10:31:53;0;0;0
24012;PMS7003;12220;50.194;18.948;2022-08-06T10:33:58;0;0;0
24012;PMS7003;12220;50.194;18.948;2022-08-06T10:36:08;0;0;0
24012;PMS7003;12220;50.194;18.948;2022-08-06T10:38:14;2;2;2
24012;PMS7003;12220;50.194;18.948;2022-08-06T10:40:26;2;0;0
24012;PMS7003;12220;50.194;18.948;2022-08-06T10:42:27;0;0;0
24012;PMS7003;12220;50.194;18.948;2022-08-06T10:44:30;1;1;1
24012;PMS7003;12220;50.194;18.948;2022-08-06T10:46:34;0;0;0
24012;PMS7003;12220;50.194;18.948;2022-08-06T10:48:40;1;1;1
24012;PMS7003;12220;50.194;18.948;2022-08-06T10:50:43;2;2;1
24012;PMS7003;12220;50.194;18.948;2022-08-06T10:52:48;0;0;0
24012;PMS7003;12220;50.194;18.948;2022-08-06T10:54:50;0;0;0
24012;PMS7003;12220;50.194;18.948;2022-08-06T10:56:55;2;1;1
24012;PMS7003;12220;50.194;18.948;2022-08-06T10:58:56;0;0;0
24012;PMS7003;12220;50.194;18.948;2022-08-06T11:01:01;1;1;1
24012;PMS7003;12220;50.194;18.948;2022-08-06T11:05:18;1;1;1
24012;PMS7003;12220;50.194;18.948;2022-08-06T11:14:36;3;3;3
24012;PMS7003;12220;50.194;18.948;2022-08-06T11:16:39;2;2;2
24012;PMS7003;12220;50.194;18.948;2022-08-06T11:18:56;2;2;2
24012;PMS7003;12220;50.194;18.948;2022-08-06T11:20:52;0;0;0
24012;PMS7003;12220;50.194;18.948;2022-08-06T11:22:54;1;1;1
24012;PMS7003;12220;50.194;18.948;2022-08-06T11:24:56;1;1;1
24012;PMS7003;12220;50.194;18.948;2022-08-06T11:27:01;4;2;2
24012;PMS7003;12220;50.194;18.948;2022-08-06T11:29:03;3;3;3
24012;PMS7003;12220;50.194;18.948;2022-08-06T11:31:07;1;1;1
24012;PMS7003;12220;50.194;18.948;2022-08-06T11:35:49;3;3;3
24012;PMS7003;12220;50.194;18.948;2022-08-06T11:37:50;2;2;1
24012;PMS7003;12220;50.194;18.948;2022-08-06T11:42:05;4;4;4
24012;PMS7003;12220;50.194;18.948;2022-08-06T11:44:09;4;4;3
24012;PMS7003;12220;50.194;18.948;2022-08-06T11:48:25;4;4;3
24012;PMS7003;12220;50.194;18.948;2022-08-06T11:50:31;3;3;3
24012;PMS7003;12220;50.194;18.948;2022-08-06T11:59:22;8;6;6
24012;PMS7003;12220;50.194;18.948;2022-08-06T12:01:44;3;3;3
24012;PMS7003;12220;50.194;18.948;2022-08-06T12:03:40;3;2;2
24012;PMS7003;12220;50.194;18.948;2022-08-06T12:05:41;3;3;3
24012;PMS7003;12220;50.194;18.948;2022-08-06T12:10:13;2;2;2
24012;PMS7003;12220;50.194;18.948;2022-08-06T12:14:39;5;5;5
24012;PMS7003;12220;50.194;18.948;2022-08-06T12:16:41;4;4;3
24012;PMS7003;12220;50.194;18.948;2022-08-06T12:18:44;6;6;5
24012;PMS7003;12220;50.194;18.948;2022-08-06T12:20:45;5;3;3
24012;PMS7003;12220;50.194;18.948;2022-08-06T12:22:49;6;6;5
24012;PMS7003;12220;50.194;18.948;2022-08-06T12:24:52;7;6;5
24012;PMS7003;12220;50.194;18.948;2022-08-06T12:26:57;3;3;3
24012;PMS7003;12220;50.194;18.948;2022-08-06T12:29:02;6;6;6
24012;PMS7003;12220;50.194;18.948;2022-08-06T12:31:05;4;4;3
24012;PMS7003;12220;50.194;18.948;2022-08-06T12:33:07;6;6;5
24012;PMS7003;12220;50.194;18.948;2022-08-06T12:35:12;4;4;3
24012;PMS7003;12220;50.194;18.948;2022-08-06T12:37:14;7;7;6
24012;PMS7003;12220;50.194;18.948;2022-08-06T12:39:19;11;11;9
24012;PMS7003;12220;50.194;18.948;2022-08-06T12:41:32;15;14;11
24012;PMS7003;12220;50.194;18.948;2022-08-06T12:43:41;10;10;7
24012;PMS7003;12220;50.194;18.948;2022-08-06T12:45:55;11;10;8
24012;PMS7003;12220;50.194;18.948;2022-08-06T12:47:59;9;9;9
24012;PMS7003;12220;50.194;18.948;2022-08-06T12:52:20;8;8;6
24012;PMS7003;12220;50.194;18.948;2022-08-06T12:54:27;8;8;6
24012;PMS7003;12220;50.194;18.948;2022-08-06T12:56:32;9;9;7
24012;PMS7003;12220;50.194;18.948;2022-08-06T12:58:38;9;9;8
24012;PMS7003;12220;50.194;18.948;2022-08-06T13:00:45;12;12;9
24012;PMS7003;12220;50.194;18.948;2022-08-06T13:02:49;11;11;9
24012;PMS7003;12220;50.194;18.948;2022-08-06T13:04:53;11;11;9
24012;PMS7003;12220;50.194;18.948;2022-08-06T13:06:56;10;10;9
24012;PMS7003;12220;50.194;18.948;2022-08-06T13:08:59;7;7;6
24012;PMS7003;12220;50.194;18.948;2022-08-06T13:11:00;8;8;6
24012;PMS7003;12220;50.194;18.948;2022-08-06T13:13:04;13;13;10
24012;PMS7003;12220;50.194;18.948;2022-08-06T13:15:13;13;13;10
24012;PMS7003;12220;50.194;18.948;2022-08-06T13:17:16;13;13;10
24012;PMS7003;12220;50.194;18.948;2022-08-06T13:19:18;10;10;8
24012;PMS7003;12220;50.194;18.948;2022-08-06T13:21:22;11;10;8
24012;PMS7003;12220;50.194;18.948;2022-08-06T13:25:41;10;9;8
24012;PMS7003;12220;50.194;18.948;2022-08-06T13:27:44;11;8;6
24012;PMS7003;12220;50.194;18.948;2022-08-06T13:32:09;13;13;10
24012;PMS7003;12220;50.194;18.948;2022-08-06T13:34:13;13;12;10
24012;PMS7003;12220;50.194;18.948;2022-08-06T13:36:19;12;11;9
24012;PMS7003;12220;50.194;18.948;2022-08-06T13:38:30;9;9;8
24012;PMS7003;12220;50.194;18.948;2022-08-06T13:40:37;11;11;8
24012;PMS7003;12220;50.194;18.948;2022-08-06T13:42:49;11;10;7
24012;PMS7003;12220;50.194;18.948;2022-08-06T13:44:55;8;8;6
24012;PMS7003;12220;50.194;18.948;2022-08-06T13:46:56;8;7;6
24012;PMS7003;12220;50.194;18.948;2022-08-06T13:49:00;14;13;10
24012;PMS7003;12220;50.194;18.948;2022-08-06T13:51:02;13;10;9
24012;PMS7003;12220;50.194;18.948;2022-08-06T13:53:07;11;10;8
24012;PMS7003;12220;50.194;18.948;2022-08-06T13:55:09;10;8;6
24012;PMS7003;12220;50.194;18.948;2022-08-06T13:57:11;8;8;6
24012;PMS7003;12220;50.194;18.948;2022-08-06T13:59:19;7;7;6
24012;PMS7003;12220;50.194;18.948;2022-08-06T14:01:23;9;9;7
24012;PMS7003;12220;50.194;18.948;2022-08-06T14:03:25;8;8;6
24012;PMS7003;12220;50.194;18.948;2022-08-06T14:05:27;8;8;8
24012;PMS7003;12220;50.194;18.948;2022-08-06T14:07:32;6;6;6
24012;PMS7003;12220;50.194;18.948;2022-08-06T14:09:33;10;10;9
24012;PMS7003;12220;50.194;18.948;2022-08-06T14:11:34;9;9;8
24012;PMS7003;12220;50.194;18.948;2022-08-06T14:13:36;9;9;7
24012;PMS7003;12220;50.194;18.948;2022-08-06T14:15:47;11;11;9
24012;PMS7003;12220;50.194;18.948;2022-08-06T14:17:52;10;8;7
24012;PMS7003;12220;50.194;18.948;2022-08-06T14:22:26;8;8;7
24012;PMS7003;12220;50.194;18.948;2022-08-06T14:24:30;7;7;6
24012;PMS7003;12220;50.194;18.948;2022-08-06T14:26:31;10;10;9
24012;PMS7003;12220;50.194;18.948;2022-08-06T14:28:35;9;9;7
24012;PMS7003;12220;50.194;18.948;2022-08-06T14:30:37;10;10;7
24012;PMS7003;12220;50.194;18.948;2022-08-06T14:32:38;9;9;7
24012;PMS7003;12220;50.194;18.948;2022-08-06T14:34:45;12;12;9
24012;PMS7003;12220;50.194;18.948;2022-08-06T14:36:47;11;11;9
24012;PMS7003;12220;50.194;18.948;2022-08-06T14:38:48;10;10;9
24012;PMS7003;12220;50.194;18.948;2022-08-06T14:40:49;8;8;6
24012;PMS7003;12220;50.194;18.948;2022-08-06T14:43:02;9;9;8
24012;PMS7003;12220;50.194;18.948;2022-08-06T14:45:22;8;8;7
24012;PMS7003;12220;50.194;18.948;2022-08-06T14:47:24;9;7;7
24012;PMS7003;12220;50.194;18.948;2022-08-06T14:49:26;9;8;7